sensor_id;sensor_type;location;lat;lon;timestamp;pressure;altitude;pressure_sealevel;temperature;humidity
6020;BME280;3038;51.122;6.840;2022-10-16T00:01:19;100850.31;;;14.38;82.79
6020;BME280;3038;51.122;6.840;2022-10-16T00:03:45;100854.47;;;14.40;82.88
6020;BME280;3038;51.122;6.840;2022-10-16T00:06:12;100845.44;;;14.42;82.65
6020;BME280;3038;51.122;6.840;2022-10-16T00:08:39;100852.16;;;14.37;82.79
6020;BME280;3038;51.122;6.840;2022-10-16T00:11:09;100856.22;;;14.33;82.91
6020;BME280;3038;51.122;6.840;2022-10-16T00:13:37;100863.41;;;14.33;83.11
6020;BME280;3038;51.122;6.840;2022-10-16T00:16:04;100867.91;;;14.32;83.12
6020;BME280;3038;51.122;6.840;2022-10-16T00:18:29;100862.91;;;14.29;82.73
6020;BME280;3038;51.122;6.840;2022-10-16T00:20:55;100876.63;;;14.26;83.24
6020;BME280;3038;51.122;6.840;2022-10-16T00:23:21;100882.97;;;14.25;83.11
6020;BME280;3038;51.122;6.840;2022-10-16T00:25:57;100874.31;;;14.23;82.97
6020;BME280;3038;51.122;6.840;2022-10-16T00:28:23;100879.66;;;14.23;82.72
6020;BME280;3038;51.122;6.840;2022-10-16T00:30:48;100869.34;;;14.20;83.37
6020;BME280;3038;51.122;6.840;2022-10-16T00:33:14;100873.38;;;14.16;83.24
6020;BME280;3038;51.122;6.840;2022-10-16T00:35:39;100868.22;;;14.14;83.39
6020;BME280;3038;51.122;6.840;2022-10-16T00:38:04;100858.75;;;14.12;83.55
6020;BME280;3038;51.122;6.840;2022-10-16T00:40:30;100866.75;;;14.12;83.43
6020;BME280;3038;51.122;6.840;2022-10-16T00:42:57;100861.41;;;14.12;82.79
6020;BME280;3038;51.122;6.840;2022-10-16T00:45:22;100863.41;;;14.10;83.27
6020;BME280;3038;51.122;6.840;2022-10-16T00:47:48;100856.41;;;14.09;83.23
6020;BME280;3038;51.122;6.840;2022-10-16T00:50:31;100851.44;;;14.06;82.97
6020;BME280;3038;51.122;6.840;2022-10-16T00:52:58;100855.13;;;14.05;83.18
6020;BME280;3038;51.122;6.840;2022-10-16T00:55:26;100846.81;;;14.00;83.58
6020;BME280;3038;51.122;6.840;2022-10-16T00:57:51;100844.88;;;13.94;83.66
6020;BME280;3038;51.122;6.840;2022-10-16T01:00:22;100847.53;;;13.94;83.63
6020;BME280;3038;51.122;6.840;2022-10-16T01:02:56;100851.84;;;13.95;83.56
6020;BME280;3038;51.122;6.840;2022-10-16T01:05:23;100859.69;;;13.96;83.65
6020;BME280;3038;51.122;6.840;2022-10-16T01:08:08;100866.66;;;13.97;83.41
6020;BME280;3038;51.122;6.840;2022-10-16T01:10:44;100864.19;;;13.96;83.99
6020;BME280;3038;51.122;6.840;2022-10-16T01:16:03;100866.22;;;13.94;84.21
6020;BME280;3038;51.122;6.840;2022-10-16T01:18:43;100875.53;;;13.98;83.53
6020;BME280;3038;51.122;6.840;2022-10-16T01:21:16;100867.16;;;14.01;83.79
6020;BME280;3038;51.122;6.840;2022-10-16T01:27:13;100882.03;;;13.95;83.86
6020;BME280;3038;51.122;6.840;2022-10-16T01:32:28;100868.69;;;13.95;83.54
6020;BME280;3038;51.122;6.840;2022-10-16T01:35:18;100869.91;;;13.93;84.13
6020;BME280;3038;51.122;6.840;2022-10-16T01:37:51;100868.75;;;13.87;84.23
6020;BME280;3038;51.122;6.840;2022-10-16T01:40:20;100864.13;;;13.81;84.35
6020;BME280;3038;51.122;6.840;2022-10-16T01:42:50;100878.00;;;13.76;84.61
6020;BME280;3038;51.122;6.840;2022-10-16T01:45:19;100873.19;;;13.72;84.72
6020;BME280;3038;51.122;6.840;2022-10-16T01:47:46;100866.38;;;13.69;84.76
6020;BME280;3038;51.122;6.840;2022-10-16T01:50:15;100872.06;;;13.66;84.92
6020;BME280;3038;51.122;6.840;2022-10-16T01:52:43;100881.41;;;13.62;85.28
6020;BME280;3038;51.122;6.840;2022-10-16T01:55:17;100885.09;;;13.61;85.44
6020;BME280;3038;51.122;6.840;2022-10-16T01:57:46;100885.09;;;13.61;85.33
6020;BME280;3038;51.122;6.840;2022-10-16T02:00:16;100888.25;;;13.65;85.32
6020;BME280;3038;51.122;6.840;2022-10-16T02:02:45;100895.06;;;13.67;85.15
6020;BME280;3038;51.122;6.840;2022-10-16T02:07:47;100885.72;;;13.71;85.22
6020;BME280;3038;51.122;6.840;2022-10-16T02:10:16;100889.38;;;13.70;85.31
6020;BME280;3038;51.122;6.840;2022-10-16T02:12:46;100866.38;;;13.69;85.48
6020;BME280;3038;51.122;6.840;2022-10-16T02:15:14;100881.56;;;13.69;85.73
6020;BME280;3038;51.122;6.840;2022-10-16T02:17:40;100892.69;;;13.72;85.11
6020;BME280;3038;51.122;6.840;2022-10-16T02:20:05;100887.66;;;13.77;85.10
6020;BME280;3038;51.122;6.840;2022-10-16T02:22:35;100899.00;;;13.79;84.89
6020;BME280;3038;51.122;6.840;2022-10-16T02:25:15;100893.31;;;13.82;84.71
6020;BME280;3038;51.122;6.840;2022-10-16T02:30:41;100898.94;;;13.87;84.47
6020;BME280;3038;51.122;6.840;2022-10-16T02:33:10;100895.59;;;13.94;84.43
6020;BME280;3038;51.122;6.840;2022-10-16T02:35:39;100900.19;;;14.00;83.67
6020;BME280;3038;51.122;6.840;2022-10-16T02:38:06;100891.78;;;14.11;82.78
6020;BME280;3038;51.122;6.840;2022-10-16T02:40:33;100893.84;;;14.24;82.16
6020;BME280;3038;51.122;6.840;2022-10-16T02:42:58;100901.63;;;14.33;81.28
6020;BME280;3038;51.122;6.840;2022-10-16T02:45:24;100895.84;;;14.45;81.03
6020;BME280;3038;51.122;6.840;2022-10-16T02:47:50;100887.97;;;14.51;80.60
6020;BME280;3038;51.122;6.840;2022-10-16T02:50:15;100883.44;;;14.52;80.65
6020;BME280;3038;51.122;6.840;2022-10-16T02:52:41;100882.91;;;14.56;80.46
6020;BME280;3038;51.122;6.840;2022-10-16T02:55:07;100881.53;;;14.60;79.90
6020;BME280;3038;51.122;6.840;2022-10-16T02:57:32;100884.56;;;14.57;79.87
6020;BME280;3038;51.122;6.840;2022-10-16T02:59:58;100891.75;;;14.57;79.19
6020;BME280;3038;51.122;6.840;2022-10-16T03:02:24;100884.38;;;14.59;79.07
6020;BME280;3038;51.122;6.840;2022-10-16T03:04:49;100892.59;;;14.57;79.18
6020;BME280;3038;51.122;6.840;2022-10-16T03:07:15;100904.91;;;14.58;78.39
6020;BME280;3038;51.122;6.840;2022-10-16T03:09:40;100902.06;;;14.60;78.86
6020;BME280;3038;51.122;6.840;2022-10-16T03:12:06;100890.53;;;14.59;78.50
6020;BME280;3038;51.122;6.840;2022-10-16T03:14:31;100876.91;;;14.54;78.39
6020;BME280;3038;51.122;6.840;2022-10-16T03:16:57;100883.06;;;14.55;78.27
6020;BME280;3038;51.122;6.840;2022-10-16T03:19:22;100880.59;;;14.53;78.26
6020;BME280;3038;51.122;6.840;2022-10-16T03:21:48;100869.72;;;14.55;78.21
6020;BME280;3038;51.122;6.840;2022-10-16T03:24:13;100876.47;;;14.51;78.45
6020;BME280;3038;51.122;6.840;2022-10-16T03:26:38;100882.16;;;14.48;78.15
6020;BME280;3038;51.122;6.840;2022-10-16T03:29:04;100886.47;;;14.49;78.27
6020;BME280;3038;51.122;6.840;2022-10-16T03:31:30;100899.84;;;14.49;78.18
6020;BME280;3038;51.122;6.840;2022-10-16T03:33:55;100894.84;;;14.46;78.24
6020;BME280;3038;51.122;6.840;2022-10-16T03:36:21;100891.50;;;14.44;78.18
6020;BME280;3038;51.122;6.840;2022-10-16T03:38:46;100889.19;;;14.40;78.25
6020;BME280;3038;51.122;6.840;2022-10-16T03:41:11;100893.88;;;14.38;78.12
6020;BME280;3038;51.122;6.840;2022-10-16T03:43:38;100887.53;;;14.39;78.54
6020;BME280;3038;51.122;6.840;2022-10-16T03:46:03;100884.41;;;14.36;78.73
6020;BME280;3038;51.122;6.840;2022-10-16T03:48:29;100880.25;;;14.33;78.86
6020;BME280;3038;51.122;6.840;2022-10-16T03:50:55;100889.63;;;14.29;78.91
6020;BME280;3038;51.122;6.840;2022-10-16T03:53:20;100889.16;;;14.26;78.85
6020;BME280;3038;51.122;6.840;2022-10-16T03:55:45;100901.84;;;14.24;78.82
6020;BME280;3038;51.122;6.840;2022-10-16T03:58:11;100915.41;;;14.22;78.72
6020;BME280;3038;51.122;6.840;2022-10-16T04:00:41;100923.56;;;14.21;78.63
6020;BME280;3038;51.122;6.840;2022-10-16T04:03:07;100912.44;;;14.17;79.09
6020;BME280;3038;51.122;6.840;2022-10-16T04:05:32;100916.91;;;14.17;79.10
6020;BME280;3038;51.122;6.840;2022-10-16T04:07:57;100911.78;;;14.15;78.88
6020;BME280;3038;51.122;6.840;2022-10-16T04:10:23;100902.94;;;14.14;78.59
6020;BME280;3038;51.122;6.840;2022-10-16T04:12:48;100903.75;;;14.15;78.94
6020;BME280;3038;51.122;6.840;2022-10-16T04:15:13;100913.59;;;14.14;79.13
6020;BME280;3038;51.122;6.840;2022-10-16T04:17:39;100919.78;;;14.15;78.58
6020;BME280;3038;51.122;6.840;2022-10-16T04:20:05;100919.78;;;14.15;78.71
6020;BME280;3038;51.122;6.840;2022-10-16T04:22:30;100923.28;;;14.15;78.97
6020;BME280;3038;51.122;6.840;2022-10-16T04:24:55;100940.94;;;14.17;78.84
6020;BME280;3038;51.122;6.840;2022-10-16T04:27:21;100942.44;;;14.19;78.78
6020;BME280;3038;51.122;6.840;2022-10-16T04:29:46;100940.78;;;14.18;78.57
6020;BME280;3038;51.122;6.840;2022-10-16T04:32:11;100944.47;;;14.17;78.75
6020;BME280;3038;51.122;6.840;2022-10-16T04:34:39;100941.13;;;14.15;78.58
6020;BME280;3038;51.122;6.840;2022-10-16T04:37:04;100935.81;;;14.15;78.77
6020;BME280;3038;51.122;6.840;2022-10-16T04:39:30;100940.13;;;14.16;78.57
6020;BME280;3038;51.122;6.840;2022-10-16T04:41:55;100939.47;;;14.14;78.74
6020;BME280;3038;51.122;6.840;2022-10-16T04:44:20;100932.50;;;14.13;78.90
6020;BME280;3038;51.122;6.840;2022-10-16T04:46:46;100938.19;;;14.10;79.07
6020;BME280;3038;51.122;6.840;2022-10-16T04:49:11;100939.00;;;14.10;79.29
6020;BME280;3038;51.122;6.840;2022-10-16T04:51:36;100938.19;;;14.10;79.03
6020;BME280;3038;51.122;6.840;2022-10-16T04:54:02;100956.88;;;14.10;79.23
6020;BME280;3038;51.122;6.840;2022-10-16T04:56:27;100973.56;;;14.12;79.32
6020;BME280;3038;51.122;6.840;2022-10-16T04:58:53;100975.56;;;14.10;79.34
6020;BME280;3038;51.122;6.840;2022-10-16T05:01:18;100977.22;;;14.11;79.51
6020;BME280;3038;51.122;6.840;2022-10-16T05:03:43;100972.06;;;14.09;79.71
6020;BME280;3038;51.122;6.840;2022-10-16T05:06:09;100962.53;;;14.07;79.52
6020;BME280;3038;51.122;6.840;2022-10-16T05:08:34;100972.59;;;14.05;79.58
6020;BME280;3038;51.122;6.840;2022-10-16T05:10:59;100979.94;;;14.03;79.96
6020;BME280;3038;51.122;6.840;2022-10-16T05:13:25;100979.75;;;14.04;80.01
6020;BME280;3038;51.122;6.840;2022-10-16T05:15:51;100972.59;;;14.05;79.79
6020;BME280;3038;51.122;6.840;2022-10-16T05:18:16;100978.09;;;14.03;80.06
6020;BME280;3038;51.122;6.840;2022-10-16T05:20:42;100986.28;;;14.02;80.20
6020;BME280;3038;51.122;6.840;2022-10-16T05:23:07;100999.63;;;14.02;80.09
6020;BME280;3038;51.122;6.840;2022-10-16T05:25:35;101011.31;;;14.01;79.96
6020;BME280;3038;51.122;6.840;2022-10-16T05:28:01;101005.81;;;14.02;80.08
6020;BME280;3038;51.122;6.840;2022-10-16T05:30:26;100999.28;;;14.05;80.37
6020;BME280;3038;51.122;6.840;2022-10-16T05:32:51;101004.44;;;14.06;80.56
6020;BME280;3038;51.122;6.840;2022-10-16T05:35:18;100994.94;;;14.04;80.49
6020;BME280;3038;51.122;6.840;2022-10-16T05:37:44;100995.13;;;14.02;80.46
6020;BME280;3038;51.122;6.840;2022-10-16T05:40:10;101012.44;;;14.06;80.39
6020;BME280;3038;51.122;6.840;2022-10-16T05:42:35;101019.94;;;14.11;80.05
6020;BME280;3038;51.122;6.840;2022-10-16T05:45:01;101023.91;;;14.15;80.30
6020;BME280;3038;51.122;6.840;2022-10-16T05:47:26;101022.56;;;14.19;80.31
6020;BME280;3038;51.122;6.840;2022-10-16T05:49:52;101018.41;;;14.17;80.05
6020;BME280;3038;51.122;6.840;2022-10-16T05:52:18;101029.56;;;14.20;80.26
6020;BME280;3038;51.122;6.840;2022-10-16T05:54:43;101033.72;;;14.23;80.12
6020;BME280;3038;51.122;6.840;2022-10-16T05:57:09;101032.91;;;14.22;80.20
6020;BME280;3038;51.122;6.840;2022-10-16T05:59:34;101037.88;;;14.25;80.02
6020;BME280;3038;51.122;6.840;2022-10-16T06:01:59;101045.56;;;14.28;80.11
6020;BME280;3038;51.122;6.840;2022-10-16T06:04:25;101044.03;;;14.26;80.23
6020;BME280;3038;51.122;6.840;2022-10-16T06:06:50;101050.22;;;14.26;80.29
6020;BME280;3038;51.122;6.840;2022-10-16T06:09:15;101053.22;;;14.31;80.46
6020;BME280;3038;51.122;6.840;2022-10-16T06:11:41;101051.19;;;14.33;80.27
6020;BME280;3038;51.122;6.840;2022-10-16T06:14:08;101052.50;;;14.37;80.04
6020;BME280;3038;51.122;6.840;2022-10-16T06:16:35;101059.16;;;14.42;80.07
6020;BME280;3038;51.122;6.840;2022-10-16T06:19:00;101057.63;;;14.47;79.63
6020;BME280;3038;51.122;6.840;2022-10-16T06:21:27;101067.81;;;14.52;79.76
6020;BME280;3038;51.122;6.840;2022-10-16T06:23:54;101068.44;;;14.54;79.98
6020;BME280;3038;51.122;6.840;2022-10-16T06:26:22;101072.97;;;14.53;79.93
6020;BME280;3038;51.122;6.840;2022-10-16T06:28:48;101065.16;;;14.44;79.99
6020;BME280;3038;51.122;6.840;2022-10-16T06:31:14;101064.50;;;14.42;79.95
6020;BME280;3038;51.122;6.840;2022-10-16T06:33:40;101068.16;;;14.40;80.36
6020;BME280;3038;51.122;6.840;2022-10-16T06:36:09;101067.63;;;14.45;80.17
6020;BME280;3038;51.122;6.840;2022-10-16T06:38:35;101069.16;;;14.48;80.00
6020;BME280;3038;51.122;6.840;2022-10-16T06:41:02;101079.50;;;14.51;80.32
6020;BME280;3038;51.122;6.840;2022-10-16T06:43:31;101086.00;;;14.56;79.95
6020;BME280;3038;51.122;6.840;2022-10-16T06:46:04;101090.13;;;14.59;80.17
6020;BME280;3038;51.122;6.840;2022-10-16T06:48:31;101106.84;;;14.61;80.41
6020;BME280;3038;51.122;6.840;2022-10-16T06:51:05;101108.06;;;14.73;80.17
6020;BME280;3038;51.122;6.840;2022-10-16T06:53:33;101110.50;;;14.83;79.53
6020;BME280;3038;51.122;6.840;2022-10-16T06:56:10;101108.72;;;14.98;78.96
6020;BME280;3038;51.122;6.840;2022-10-16T06:58:36;101118.00;;;15.10;78.84
6020;BME280;3038;51.122;6.840;2022-10-16T07:01:02;101118.09;;;15.17;78.75
6020;BME280;3038;51.122;6.840;2022-10-16T07:03:27;101120.72;;;15.25;78.75
6020;BME280;3038;51.122;6.840;2022-10-16T07:05:53;101127.38;;;15.29;78.31
6020;BME280;3038;51.122;6.840;2022-10-16T07:08:18;101134.72;;;15.27;77.76
6020;BME280;3038;51.122;6.840;2022-10-16T07:10:43;101142.13;;;15.25;77.87
6020;BME280;3038;51.122;6.840;2022-10-16T07:13:09;101146.84;;;15.23;78.16
6020;BME280;3038;51.122;6.840;2022-10-16T07:15:38;101153.53;;;15.19;78.42
6020;BME280;3038;51.122;6.840;2022-10-16T07:18:03;101156.09;;;15.12;78.13
6020;BME280;3038;51.122;6.840;2022-10-16T07:20:28;101160.97;;;15.09;78.52
6020;BME280;3038;51.122;6.840;2022-10-16T07:22:54;101166.03;;;15.04;78.64
6020;BME280;3038;51.122;6.840;2022-10-16T07:25:19;101162.59;;;14.95;78.91
6020;BME280;3038;51.122;6.840;2022-10-16T07:27:45;101164.13;;;14.89;79.15
6020;BME280;3038;51.122;6.840;2022-10-16T07:30:10;101167.34;;;14.85;79.43
6020;BME280;3038;51.122;6.840;2022-10-16T07:32:35;101171.34;;;14.81;79.81
6020;BME280;3038;51.122;6.840;2022-10-16T07:35:01;101174.84;;;14.81;79.79
6020;BME280;3038;51.122;6.840;2022-10-16T07:37:26;101169.81;;;14.86;79.64
6020;BME280;3038;51.122;6.840;2022-10-16T07:39:52;101166.13;;;14.87;79.78
6020;BME280;3038;51.122;6.840;2022-10-16T07:42:17;101176.09;;;14.94;79.43
6020;BME280;3038;51.122;6.840;2022-10-16T07:44:42;101179.44;;;14.96;79.01
6020;BME280;3038;51.122;6.840;2022-10-16T07:47:08;101182.75;;;14.98;79.11
6020;BME280;3038;51.122;6.840;2022-10-16T07:49:34;101184.44;;;14.99;79.21
6020;BME280;3038;51.122;6.840;2022-10-16T07:51:59;101189.78;;;14.99;78.87
6020;BME280;3038;51.122;6.840;2022-10-16T07:54:24;101204.66;;;15.01;78.98
6020;BME280;3038;51.122;6.840;2022-10-16T07:56:50;101213.78;;;15.07;78.78
6020;BME280;3038;51.122;6.840;2022-10-16T07:59:15;101202.03;;;15.16;78.75
6020;BME280;3038;51.122;6.840;2022-10-16T08:01:41;101219.41;;;15.20;78.68
6020;BME280;3038;51.122;6.840;2022-10-16T08:04:08;101219.81;;;15.32;78.84
6020;BME280;3038;51.122;6.840;2022-10-16T08:06:38;101216.53;;;15.45;78.25
6020;BME280;3038;51.122;6.840;2022-10-16T08:09:04;101217.47;;;15.52;77.88
6020;BME280;3038;51.122;6.840;2022-10-16T08:11:30;101217.13;;;15.55;77.33
6020;BME280;3038;51.122;6.840;2022-10-16T08:13:55;101216.06;;;15.64;77.26
6020;BME280;3038;51.122;6.840;2022-10-16T08:16:21;101225.34;;;15.76;76.95
6020;BME280;3038;51.122;6.840;2022-10-16T08:18:46;101225.09;;;15.86;76.96
6020;BME280;3038;51.122;6.840;2022-10-16T08:21:15;101226.84;;;15.93;76.00
6020;BME280;3038;51.122;6.840;2022-10-16T08:23:41;101225.75;;;16.03;76.16
6020;BME280;3038;51.122;6.840;2022-10-16T08:26:07;101229.19;;;16.11;75.82
6020;BME280;3038;51.122;6.840;2022-10-16T08:28:33;101232.63;;;16.20;75.42
6020;BME280;3038;51.122;6.840;2022-10-16T08:31:11;101238.88;;;16.27;74.58
6020;BME280;3038;51.122;6.840;2022-10-16T08:33:37;101247.19;;;16.32;74.70
6020;BME280;3038;51.122;6.840;2022-10-16T08:36:04;101253.09;;;16.42;74.23
6020;BME280;3038;51.122;6.840;2022-10-16T08:38:30;101256.06;;;16.48;73.86
6020;BME280;3038;51.122;6.840;2022-10-16T08:41:22;101260.97;;;16.59;72.82
6020;BME280;3038;51.122;6.840;2022-10-16T08:46:36;101265.59;;;16.80;72.59
6020;BME280;3038;51.122;6.840;2022-10-16T08:49:11;101266.06;;;16.83;71.68
6020;BME280;3038;51.122;6.840;2022-10-16T08:51:38;101276.88;;;16.90;71.96
6020;BME280;3038;51.122;6.840;2022-10-16T08:54:06;101274.25;;;16.96;71.70
6020;BME280;3038;51.122;6.840;2022-10-16T08:56:36;101275.81;;;17.06;71.24
6020;BME280;3038;51.122;6.840;2022-10-16T08:59:03;101275.38;;;17.02;70.61
6020;BME280;3038;51.122;6.840;2022-10-16T09:01:41;101277.00;;;17.18;70.68
6020;BME280;3038;51.122;6.840;2022-10-16T09:10:00;101281.84;;;17.29;68.74
6020;BME280;3038;51.122;6.840;2022-10-16T09:13:02;101282.38;;;17.39;69.44
6020;BME280;3038;51.122;6.840;2022-10-16T09:18:23;101276.81;;;17.62;68.62
6020;BME280;3038;51.122;6.840;2022-10-16T09:20:58;101280.59;;;17.68;67.04
6020;BME280;3038;51.122;6.840;2022-10-16T09:23:27;101282.41;;;17.82;67.21
6020;BME280;3038;51.122;6.840;2022-10-16T09:25:54;101279.34;;;17.85;67.14
6020;BME280;3038;51.122;6.840;2022-10-16T09:28:20;101277.06;;;17.89;66.54
6020;BME280;3038;51.122;6.840;2022-10-16T09:30:46;101289.31;;;17.91;65.95
6020;BME280;3038;51.122;6.840;2022-10-16T09:33:14;101297.66;;;18.03;66.14
6020;BME280;3038;51.122;6.840;2022-10-16T09:35:45;101297.28;;;18.34;66.27
6020;BME280;3038;51.122;6.840;2022-10-16T09:40:47;101308.31;;;21.26;59.18
6020;BME280;3038;51.122;6.840;2022-10-16T09:48:44;101303.91;;;23.90;49.25
6020;BME280;3038;51.122;6.840;2022-10-16T09:51:41;101310.56;;;24.41;48.32
6020;BME280;3038;51.122;6.840;2022-10-16T09:56:34;101305.00;;;24.36;47.29
6020;BME280;3038;51.122;6.840;2022-10-16T09:59:08;101289.94;;;24.92;45.90
6020;BME280;3038;51.122;6.840;2022-10-16T10:01:55;101315.72;;;24.07;47.52
6020;BME280;3038;51.122;6.840;2022-10-16T10:04:25;101300.19;;;24.38;45.23
6020;BME280;3038;51.122;6.840;2022-10-16T10:06:54;101299.16;;;24.91;45.78
6020;BME280;3038;51.122;6.840;2022-10-16T10:09:28;101297.59;;;25.52;43.72
6020;BME280;3038;51.122;6.840;2022-10-16T10:11:58;101294.75;;;26.09;43.18
6020;BME280;3038;51.122;6.840;2022-10-16T10:14:38;101289.50;;;26.80;40.85
6020;BME280;3038;51.122;6.840;2022-10-16T10:19:37;101296.66;;;27.62;40.32
6020;BME280;3038;51.122;6.840;2022-10-16T10:22:16;101294.81;;;27.14;40.75
6020;BME280;3038;51.122;6.840;2022-10-16T10:24:44;101292.72;;;25.09;43.34
6020;BME280;3038;51.122;6.840;2022-10-16T10:27:15;101299.94;;;22.84;48.71
6020;BME280;3038;51.122;6.840;2022-10-16T10:29:56;101292.53;;;21.61;51.72
6020;BME280;3038;51.122;6.840;2022-10-16T10:32:41;101293.50;;;21.42;51.92
6020;BME280;3038;51.122;6.840;2022-10-16T10:35:14;101292.53;;;22.18;51.17
6020;BME280;3038;51.122;6.840;2022-10-16T10:43:01;101299.81;;;25.38;43.41
6020;BME280;3038;51.122;6.840;2022-10-16T10:48:17;101299.78;;;24.11;46.42
6020;BME280;3038;51.122;6.840;2022-10-16T10:50:56;101294.16;;;24.36;46.11
6020;BME280;3038;51.122;6.840;2022-10-16T10:53:40;101291.16;;;25.13;43.54
6020;BME280;3038;51.122;6.840;2022-10-16T10:59:28;101297.34;;;22.59;49.37
6020;BME280;3038;51.122;6.840;2022-10-16T11:04:58;101307.91;;;24.70;46.37
6020;BME280;3038;51.122;6.840;2022-10-16T11:07:36;101302.25;;;24.13;46.70
6020;BME280;3038;51.122;6.840;2022-10-16T11:10:11;101300.53;;;24.94;45.14
6020;BME280;3038;51.122;6.840;2022-10-16T11:12:42;101306.50;;;24.79;45.28
6020;BME280;3038;51.122;6.840;2022-10-16T11:17:49;101309.63;;;24.47;45.75
6020;BME280;3038;51.122;6.840;2022-10-16T11:25:33;101315.16;;;25.45;43.69
6020;BME280;3038;51.122;6.840;2022-10-16T11:30:57;101308.63;;;26.63;41.81
6020;BME280;3038;51.122;6.840;2022-10-16T11:33:55;101314.03;;;28.15;39.14
6020;BME280;3038;51.122;6.840;2022-10-16T11:47:33;101325.03;;;27.12;39.99
6020;BME280;3038;51.122;6.840;2022-10-16T11:55:37;101310.22;;;29.27;36.25
6020;BME280;3038;51.122;6.840;2022-10-16T11:58:07;101312.63;;;27.49;38.52
6020;BME280;3038;51.122;6.840;2022-10-16T12:00:46;101326.78;;;26.02;41.54
6020;BME280;3038;51.122;6.840;2022-10-16T12:03:38;101332.00;;;28.43;37.25
6020;BME280;3038;51.122;6.840;2022-10-16T12:08:40;101325.59;;;28.75;38.71
6020;BME280;3038;51.122;6.840;2022-10-16T12:13:51;101330.81;;;26.72;41.00
6020;BME280;3038;51.122;6.840;2022-10-16T12:18:45;101335.69;;;28.69;37.78
6020;BME280;3038;51.122;6.840;2022-10-16T12:21:16;101325.88;;;29.92;35.15
6020;BME280;3038;51.122;6.840;2022-10-16T12:23:52;101330.72;;;28.61;36.24
6020;BME280;3038;51.122;6.840;2022-10-16T12:26:31;101312.72;;;30.10;34.36
6020;BME280;3038;51.122;6.840;2022-10-16T12:29:14;101321.88;;;27.75;37.89
6020;BME280;3038;51.122;6.840;2022-10-16T12:31:48;101312.13;;;27.52;38.73
6020;BME280;3038;51.122;6.840;2022-10-16T12:34:26;101313.47;;;29.29;35.36
6020;BME280;3038;51.122;6.840;2022-10-16T12:36:53;101306.34;;;30.70;34.39
6020;BME280;3038;51.122;6.840;2022-10-16T12:39:22;101302.88;;;29.83;35.62
6020;BME280;3038;51.122;6.840;2022-10-16T12:41:48;101309.06;;;30.76;34.44
6020;BME280;3038;51.122;6.840;2022-10-16T12:44:23;101298.44;;;31.08;32.20
6020;BME280;3038;51.122;6.840;2022-10-16T12:46:51;101303.44;;;29.55;35.52
6020;BME280;3038;51.122;6.840;2022-10-16T12:49:29;101302.13;;;27.08;37.78
6020;BME280;3038;51.122;6.840;2022-10-16T12:51:55;101309.28;;;25.36;41.85
6020;BME280;3038;51.122;6.840;2022-10-16T12:54:31;101318.22;;;24.56;43.92
6020;BME280;3038;51.122;6.840;2022-10-16T12:57:37;101322.22;;;23.95;45.94
6020;BME280;3038;51.122;6.840;2022-10-16T13:00:12;101320.31;;;23.53;47.24
6020;BME280;3038;51.122;6.840;2022-10-16T13:03:38;101317.94;;;23.45;47.04
6020;BME280;3038;51.122;6.840;2022-10-16T13:11:56;101304.41;;;24.34;44.83
6020;BME280;3038;51.122;6.840;2022-10-16T13:22:24;101313.09;;;24.83;43.79
6020;BME280;3038;51.122;6.840;2022-10-16T13:27:46;101317.63;;;26.86;39.46
6020;BME280;3038;51.122;6.840;2022-10-16T13:30:24;101317.44;;;26.71;40.05
6020;BME280;3038;51.122;6.840;2022-10-16T13:32:56;101314.41;;;27.92;38.66
6020;BME280;3038;51.122;6.840;2022-10-16T13:35:28;101307.22;;;28.23;36.80
6020;BME280;3038;51.122;6.840;2022-10-16T13:38:14;101311.50;;;27.72;37.49
6020;BME280;3038;51.122;6.840;2022-10-16T13:41:04;101321.50;;;26.12;40.05
6020;BME280;3038;51.122;6.840;2022-10-16T13:43:41;101317.66;;;25.63;41.17
6020;BME280;3038;51.122;6.840;2022-10-16T13:46:18;101307.53;;;25.75;41.06
6020;BME280;3038;51.122;6.840;2022-10-16T13:48:44;101305.63;;;25.59;42.22
6020;BME280;3038;51.122;6.840;2022-10-16T13:51:20;101304.13;;;25.23;42.03
6020;BME280;3038;51.122;6.840;2022-10-16T13:53:46;101305.47;;;25.08;42.08
6020;BME280;3038;51.122;6.840;2022-10-16T13:56:14;101312.41;;;24.76;43.20
6020;BME280;3038;51.122;6.840;2022-10-16T13:58:40;101319.03;;;24.33;43.96
6020;BME280;3038;51.122;6.840;2022-10-16T14:01:26;101316.31;;;24.09;44.58
6020;BME280;3038;51.122;6.840;2022-10-16T14:03:53;101313.78;;;23.73;45.01
6020;BME280;3038;51.122;6.840;2022-10-16T14:06:25;101313.28;;;23.34;45.45
6020;BME280;3038;51.122;6.840;2022-10-16T14:08:58;101312.44;;;23.22;46.28
6020;BME280;3038;51.122;6.840;2022-10-16T14:11:25;101317.09;;;23.15;46.91
6020;BME280;3038;51.122;6.840;2022-10-16T14:13:51;101321.84;;;23.01;47.18
6020;BME280;3038;51.122;6.840;2022-10-16T14:16:25;101320.19;;;23.00;47.48
6020;BME280;3038;51.122;6.840;2022-10-16T14:18:57;101324.78;;;22.99;47.26
6020;BME280;3038;51.122;6.840;2022-10-16T14:21:24;101317.03;;;22.84;47.46
6020;BME280;3038;51.122;6.840;2022-10-16T14:23:50;101318.38;;;22.75;47.89
6020;BME280;3038;51.122;6.840;2022-10-16T14:26:19;101305.38;;;22.84;48.34
6020;BME280;3038;51.122;6.840;2022-10-16T14:28:46;101303.25;;;22.86;48.36
6020;BME280;3038;51.122;6.840;2022-10-16T14:31:32;101313.19;;;22.74;48.07
6020;BME280;3038;51.122;6.840;2022-10-16T14:33:59;101310.91;;;22.52;48.87
6020;BME280;3038;51.122;6.840;2022-10-16T14:36:26;101307.81;;;22.30;48.73
6020;BME280;3038;51.122;6.840;2022-10-16T14:39:03;101299.59;;;22.19;48.96
6020;BME280;3038;51.122;6.840;2022-10-16T14:41:31;101297.16;;;22.11;49.44
6020;BME280;3038;51.122;6.840;2022-10-16T14:44:02;101290.97;;;22.03;50.75
6020;BME280;3038;51.122;6.840;2022-10-16T14:46:39;101294.16;;;21.94;50.10
6020;BME280;3038;51.122;6.840;2022-10-16T14:49:14;101308.81;;;21.86;50.52
6020;BME280;3038;51.122;6.840;2022-10-16T14:51:41;101320.94;;;21.77;50.83
6020;BME280;3038;51.122;6.840;2022-10-16T14:54:10;101323.91;;;21.69;52.07
6020;BME280;3038;51.122;6.840;2022-10-16T14:56:47;101319.44;;;21.49;54.06
6020;BME280;3038;51.122;6.840;2022-10-16T14:59:46;101327.50;;;21.18;55.38
6020;BME280;3038;51.122;6.840;2022-10-16T15:02:30;101320.78;;;21.27;55.20
6020;BME280;3038;51.122;6.840;2022-10-16T15:04:57;101325.75;;;21.30;54.57
6020;BME280;3038;51.122;6.840;2022-10-16T15:07:23;101321.22;;;21.30;54.92